createdAt,value
2022-08-31T00:00:22.556Z,1.50
2022-08-31T00:01:22.476Z,1.70
2022-08-31T00:02:22.517Z,1.60
2022-08-31T00:03:22.486Z,1.70
2022-08-31T00:04:22.501Z,1.40
2022-08-31T00:05:22.441Z,1.40
2022-08-31T00:06:22.442Z,1.40
2022-08-31T00:07:22.433Z,1.50
2022-08-31T00:08:22.393Z,1.70
2022-08-31T00:09:22.418Z,1.70
2022-08-31T00:10:32.458Z,1.70
2022-08-31T00:11:23.365Z,1.40
2022-08-31T00:12:22.347Z,1.50
2022-08-31T00:13:22.351Z,1.40
2022-08-31T00:14:22.330Z,1.40
2022-08-31T00:15:23.803Z,1.90
2022-08-31T00:16:22.343Z,1.60
2022-08-31T00:17:22.290Z,1.60
2022-08-31T00:18:22.281Z,1.50
2022-08-31T00:19:22.273Z,1.50
2022-08-31T00:20:32.765Z,1.30
2022-08-31T00:21:23.284Z,1.70
2022-08-31T00:22:22.261Z,1.30
2022-08-31T00:23:23.202Z,1.50
2022-08-31T00:24:22.221Z,1.30
2022-08-31T00:25:22.202Z,1.20
2022-08-31T00:26:22.220Z,1.30
2022-08-31T00:27:22.180Z,1.70
2022-08-31T00:28:22.212Z,1.40
2022-08-31T00:29:22.159Z,1.40
2022-08-31T00:30:22.254Z,1.30
2022-08-31T00:31:22.189Z,1.30
2022-08-31T00:32:23.656Z,1.00
2022-08-31T00:33:23.135Z,1.20
2022-08-31T00:34:22.105Z,1.30
2022-08-31T00:35:22.089Z,1.40
2022-08-31T00:36:22.120Z,1.50
2022-08-31T00:37:22.068Z,1.10
2022-08-31T00:38:22.065Z,1.30
2022-08-31T00:39:22.055Z,1.20
2022-08-31T00:40:22.116Z,1.40
2022-08-31T00:41:22.034Z,1.30
2022-08-31T00:42:22.091Z,1.30
2022-08-31T00:43:22.004Z,1.60
2022-08-31T00:44:22.010Z,1.70
2022-08-31T00:45:22.036Z,1.50
2022-08-31T00:46:21.971Z,1.20
2022-08-31T00:47:21.960Z,1.40
2022-08-31T00:48:21.992Z,1.50
2022-08-31T00:49:21.987Z,1.30
2022-08-31T00:50:21.922Z,1.30
2022-08-31T00:51:21.902Z,1.10
2022-08-31T00:52:21.898Z,1.30
2022-08-31T00:53:21.911Z,1.30
2022-08-31T00:54:21.881Z,1.40
2022-08-31T00:55:21.880Z,1.10
2022-08-31T00:56:21.874Z,1.20
2022-08-31T00:57:30.119Z,1.20
2022-08-31T00:58:22.908Z,1.10
2022-08-31T00:59:21.844Z,1.20
2022-08-31T01:00:21.805Z,1.10
2022-08-31T01:01:21.842Z,1.20
2022-08-31T01:02:21.830Z,1.20
2022-08-31T01:03:21.812Z,1.10
2022-08-31T01:04:21.765Z,1.40
2022-08-31T01:05:21.785Z,1.50
2022-08-31T01:06:21.772Z,1.00
2022-08-31T01:07:21.741Z,1.20
2022-08-31T01:08:21.717Z,1.40
2022-08-31T01:09:22.759Z,1.60
2022-08-31T01:10:21.703Z,1.30
2022-08-31T01:11:21.688Z,1.40
2022-08-31T01:12:21.709Z,1.10
2022-08-31T01:13:21.674Z,1.00
2022-08-31T01:14:21.650Z,1.20
2022-08-31T01:15:21.634Z,1.20
2022-08-31T01:16:21.680Z,1.10
2022-08-31T01:17:22.577Z,1.00
2022-08-31T01:18:21.654Z,1.20
2022-08-31T01:19:21.624Z,1.60
2022-08-31T01:20:21.575Z,1.50
2022-08-31T01:21:21.562Z,1.00
2022-08-31T01:22:21.617Z,1.20
2022-08-31T01:23:21.551Z,1.40
2022-08-31T01:24:21.565Z,1.20
2022-08-31T01:25:21.569Z,1.30
2022-08-31T01:26:21.513Z,1.60
2022-08-31T01:27:21.511Z,1.30
2022-08-31T01:28:21.519Z,1.10
2022-08-31T01:29:21.497Z,1.30
2022-08-31T01:30:21.473Z,1.30
2022-08-31T01:31:21.542Z,1.20
2022-08-31T01:32:21.444Z,1.10
2022-08-31T01:33:21.440Z,1.20
2022-08-31T01:34:21.467Z,1.40
2022-08-31T01:35:21.406Z,1.20
2022-08-31T01:36:21.777Z,1.20
2022-08-31T01:37:29.344Z,1.20
2022-08-31T01:38:22.392Z,1.20
2022-08-31T01:39:21.375Z,1.10
2022-08-31T01:40:21.423Z,1.40
2022-08-31T01:41:21.349Z,1.40
2022-08-31T01:42:21.357Z,1.20
2022-08-31T01:43:21.329Z,1.20
2022-08-31T01:44:21.338Z,1.40
2022-08-31T01:45:21.302Z,1.10
2022-08-31T01:46:21.374Z,1.30
2022-08-31T01:47:21.276Z,1.70
2022-08-31T01:48:21.267Z,1.20
2022-08-31T01:49:21.250Z,1.30
2022-08-31T01:50:21.241Z,0.90
2022-08-31T01:51:21.256Z,1.20
2022-08-31T01:52:21.242Z,0.90
2022-08-31T01:53:21.203Z,0.90
2022-08-31T01:54:21.231Z,1.50
2022-08-31T01:55:21.193Z,1.10
2022-08-31T01:56:21.197Z,1.30
2022-08-31T01:57:21.804Z,1.10
2022-08-31T01:58:22.187Z,1.40
2022-08-31T01:59:21.144Z,1.40
2022-08-31T02:00:21.135Z,1.20
2022-08-31T02:01:33.153Z,1.30
2022-08-31T02:02:22.177Z,1.60
2022-08-31T02:03:21.142Z,1.10
2022-08-31T02:04:21.085Z,1.20
2022-08-31T02:05:21.067Z,1.00
2022-08-31T02:06:22.030Z,1.10
2022-08-31T02:07:21.059Z,1.10
2022-08-31T02:08:21.059Z,1.00
2022-08-31T02:09:21.064Z,1.10
2022-08-31T02:10:21.044Z,1.10
2022-08-31T02:11:21.013Z,1.10
2022-08-31T02:12:21.006Z,1.10
2022-08-31T02:13:21.018Z,1.30
2022-08-31T02:14:20.990Z,1.20
2022-08-31T02:15:20.986Z,1.40
2022-08-31T02:16:20.995Z,1.70
2022-08-31T02:17:20.938Z,0.90
2022-08-31T02:18:20.952Z,1.70
2022-08-31T02:19:20.925Z,1.10
2022-08-31T02:20:20.941Z,1.60
2022-08-31T02:21:20.926Z,1.00
2022-08-31T02:22:20.894Z,1.20
2022-08-31T02:23:20.874Z,1.20
2022-08-31T02:24:20.910Z,0.90
2022-08-31T02:25:20.847Z,1.40
2022-08-31T02:26:20.904Z,1.20
2022-08-31T02:27:20.824Z,1.30
2022-08-31T02:28:20.844Z,1.00
2022-08-31T02:29:20.811Z,1.00
2022-08-31T02:30:20.844Z,1.10
2022-08-31T02:31:20.872Z,1.20
2022-08-31T02:32:20.805Z,1.10
2022-08-31T02:33:20.777Z,1.20
2022-08-31T02:34:20.775Z,1.20
2022-08-31T02:35:20.745Z,1.20
2022-08-31T02:36:20.731Z,1.20
2022-08-31T02:37:20.979Z,1.00
2022-08-31T02:38:20.707Z,0.90
2022-08-31T02:39:20.710Z,1.20
2022-08-31T02:40:20.757Z,1.00
2022-08-31T02:41:20.771Z,0.90
2022-08-31T02:42:20.710Z,1.20
2022-08-31T02:43:25.061Z,1.20
2022-08-31T02:44:20.661Z,1.00
2022-08-31T02:45:20.623Z,1.00
2022-08-31T02:46:20.678Z,1.00
2022-08-31T02:47:20.610Z,1.10
2022-08-31T02:48:20.598Z,1.00
2022-08-31T02:49:20.617Z,1.00
2022-08-31T02:50:20.580Z,1.10
2022-08-31T02:51:20.590Z,1.10
2022-08-31T02:52:20.574Z,1.40
2022-08-31T02:53:20.593Z,1.00
2022-08-31T02:54:20.552Z,1.10
2022-08-31T02:55:22.127Z,1.00
2022-08-31T02:56:20.505Z,1.00
2022-08-31T02:57:20.500Z,1.10
2022-08-31T02:58:23.946Z,1.10
2022-08-31T02:59:20.471Z,1.20
2022-08-31T03:00:20.458Z,1.20
2022-08-31T03:01:20.545Z,1.10
2022-08-31T03:02:20.516Z,1.10
2022-08-31T03:03:20.575Z,1.10
2022-08-31T03:04:20.420Z,1.30
2022-08-31T03:05:20.405Z,1.00
2022-08-31T03:06:20.397Z,1.00
2022-08-31T03:07:20.423Z,1.00
2022-08-31T03:08:20.377Z,1.10
2022-08-31T03:09:20.366Z,1.00
2022-08-31T03:10:20.380Z,1.00
2022-08-31T03:11:20.396Z,1.00
2022-08-31T03:12:20.389Z,1.10
2022-08-31T03:13:20.620Z,1.30
2022-08-31T03:14:20.298Z,1.00
2022-08-31T03:15:20.299Z,1.10
2022-08-31T03:16:20.394Z,1.00
2022-08-31T03:17:20.334Z,1.30
2022-08-31T03:18:20.274Z,1.20
2022-08-31T03:19:20.759Z,1.10
2022-08-31T03:20:20.246Z,1.00
2022-08-31T03:21:20.233Z,1.10
2022-08-31T03:22:20.244Z,1.10
2022-08-31T03:23:20.469Z,1.10
2022-08-31T03:24:20.193Z,1.10
2022-08-31T03:25:20.186Z,1.20
2022-08-31T03:26:20.184Z,1.20
2022-08-31T03:27:20.170Z,1.10
2022-08-31T03:28:20.153Z,1.50
2022-08-31T03:29:20.184Z,1.20
2022-08-31T03:30:20.153Z,1.10
2022-08-31T03:31:20.252Z,1.10
2022-08-31T03:32:20.134Z,0.90
2022-08-31T03:33:20.263Z,1.10
2022-08-31T03:34:20.103Z,1.00
2022-08-31T03:35:20.082Z,1.10
2022-08-31T03:36:21.041Z,1.00
2022-08-31T03:37:20.055Z,1.00
2022-08-31T03:38:20.047Z,1.00
2022-08-31T03:39:20.034Z,1.20
2022-08-31T03:40:20.030Z,1.20
2022-08-31T03:41:20.032Z,1.10
2022-08-31T03:42:20.074Z,1.00
2022-08-31T03:43:20.095Z,1.00
2022-08-31T03:44:19.997Z,1.10
2022-08-31T03:45:20.156Z,1.00
2022-08-31T03:46:20.103Z,1.00
2022-08-31T03:47:19.971Z,1.00
2022-08-31T03:48:19.931Z,1.20
2022-08-31T03:49:19.919Z,1.10
2022-08-31T03:50:19.905Z,0.90
2022-08-31T03:51:19.910Z,1.20
2022-08-31T03:52:19.880Z,1.40
2022-08-31T03:53:22.947Z,1.00
2022-08-31T03:54:19.849Z,1.00
2022-08-31T03:55:19.887Z,1.30
2022-08-31T03:56:19.913Z,1.10
2022-08-31T03:57:19.825Z,1.30
2022-08-31T03:58:19.846Z,1.20
2022-08-31T03:59:19.809Z,1.10
2022-08-31T04:00:19.837Z,1.30
2022-08-31T04:01:19.822Z,1.20
2022-08-31T04:02:19.864Z,1.20
2022-08-31T04:03:19.837Z,1.20
2022-08-31T04:04:19.745Z,1.20
2022-08-31T04:05:19.746Z,1.20
2022-08-31T04:06:19.742Z,1.10
2022-08-31T04:07:19.730Z,1.20
2022-08-31T04:08:19.701Z,1.20
2022-08-31T04:09:19.754Z,1.30
2022-08-31T04:10:19.675Z,1.10
2022-08-31T04:11:19.808Z,1.40
2022-08-31T04:12:20.646Z,1.10
2022-08-31T04:13:19.843Z,1.10
2022-08-31T04:14:19.621Z,1.20
2022-08-31T04:15:19.658Z,1.30
2022-08-31T04:16:19.627Z,1.20
2022-08-31T04:17:19.598Z,1.10
2022-08-31T04:18:19.590Z,1.20
2022-08-31T04:19:19.571Z,0.90
2022-08-31T04:20:19.601Z,1.50
2022-08-31T04:21:20.588Z,1.10
2022-08-31T04:22:19.548Z,1.30
2022-08-31T04:23:19.654Z,1.20
2022-08-31T04:24:19.530Z,1.20
2022-08-31T04:25:21.546Z,1.10
2022-08-31T04:26:19.492Z,1.20
2022-08-31T04:27:19.492Z,1.30
2022-08-31T04:28:19.493Z,1.20
2022-08-31T04:29:19.472Z,1.30
2022-08-31T04:30:19.498Z,1.50
2022-08-31T04:31:19.547Z,1.30
2022-08-31T04:32:19.424Z,1.30
2022-08-31T04:33:19.629Z,1.20
2022-08-31T04:34:19.541Z,1.10
2022-08-31T04:35:19.396Z,1.20
2022-08-31T04:36:19.386Z,1.10
2022-08-31T04:37:19.405Z,1.30
2022-08-31T04:38:19.382Z,1.30
2022-08-31T04:39:19.356Z,1.30
2022-08-31T04:40:19.392Z,1.10
2022-08-31T04:41:19.329Z,1.20
2022-08-31T04:42:19.433Z,1.60
2022-08-31T04:43:19.459Z,1.20
2022-08-31T04:44:20.315Z,1.40
2022-08-31T04:45:19.284Z,1.50
2022-08-31T04:46:19.342Z,1.60
2022-08-31T04:47:19.268Z,1.70
2022-08-31T04:48:19.280Z,1.50
2022-08-31T04:49:19.264Z,1.20
2022-08-31T04:50:19.263Z,1.70
2022-08-31T04:51:19.222Z,1.20
2022-08-31T04:52:19.214Z,1.20
2022-08-31T04:53:19.354Z,1.40
2022-08-31T04:54:19.245Z,1.40
2022-08-31T04:55:19.172Z,1.50
2022-08-31T04:56:19.157Z,1.30
2022-08-31T04:57:19.183Z,1.30
2022-08-31T04:58:19.140Z,1.60
2022-08-31T04:59:19.145Z,1.50
2022-08-31T05:00:19.220Z,1.30
2022-08-31T05:01:19.243Z,1.20
2022-08-31T05:02:19.194Z,1.40
2022-08-31T05:03:19.264Z,1.40
2022-08-31T05:04:19.124Z,1.20
2022-08-31T05:05:19.160Z,1.30
2022-08-31T05:06:19.067Z,1.40
2022-08-31T05:07:19.085Z,1.40
2022-08-31T05:08:19.047Z,1.50
2022-08-31T05:09:19.035Z,1.20
2022-08-31T05:10:19.067Z,1.30
2022-08-31T05:11:22.937Z,1.30
2022-08-31T05:12:20.036Z,1.60
2022-08-31T05:13:19.245Z,1.50
2022-08-31T05:14:18.957Z,1.30
2022-08-31T05:15:19.000Z,1.10
2022-08-31T05:16:19.053Z,1.60
2022-08-31T05:17:18.933Z,1.20
2022-08-31T05:18:18.923Z,1.30
2022-08-31T05:19:18.950Z,1.30
2022-08-31T05:20:18.899Z,1.20
2022-08-31T05:21:18.987Z,1.30
2022-08-31T05:22:18.899Z,1.50
2022-08-31T05:23:18.979Z,1.40
2022-08-31T05:24:18.859Z,1.30
2022-08-31T05:25:18.909Z,1.20
2022-08-31T05:26:20.748Z,1.20
2022-08-31T05:27:18.873Z,1.30
2022-08-31T05:28:18.871Z,1.40
2022-08-31T05:29:18.852Z,1.40
2022-08-31T05:30:18.825Z,1.40
2022-08-31T05:31:18.863Z,1.40
2022-08-31T05:32:18.806Z,1.40
2022-08-31T05:33:18.910Z,1.40
2022-08-31T05:34:18.759Z,1.20
2022-08-31T05:35:18.718Z,1.30
2022-08-31T05:36:18.734Z,1.50
2022-08-31T05:37:18.726Z,1.10
2022-08-31T05:38:18.699Z,1.20
2022-08-31T05:39:18.699Z,1.50
2022-08-31T05:40:18.768Z,1.70
2022-08-31T05:41:18.659Z,1.50
2022-08-31T05:42:18.667Z,1.70
2022-08-31T05:43:18.783Z,1.40
2022-08-31T05:44:18.625Z,1.50
2022-08-31T05:45:18.627Z,1.60
2022-08-31T05:46:18.667Z,1.40
2022-08-31T05:47:18.605Z,1.30
2022-08-31T05:48:18.583Z,1.90
2022-08-31T05:49:18.563Z,1.20
2022-08-31T05:50:18.821Z,1.50
2022-08-31T05:51:18.624Z,1.70
2022-08-31T05:52:18.547Z,1.40
2022-08-31T05:53:18.634Z,1.60
2022-08-31T05:54:18.555Z,1.70
2022-08-31T05:55:18.497Z,1.40
2022-08-31T05:56:19.226Z,1.40
2022-08-31T05:57:18.524Z,1.20
2022-08-31T05:58:18.461Z,1.50
2022-08-31T05:59:18.461Z,1.30
2022-08-31T06:00:18.479Z,1.30
2022-08-31T06:01:18.431Z,1.50
2022-08-31T06:02:18.553Z,1.30
2022-08-31T06:03:18.576Z,1.50
2022-08-31T06:04:18.403Z,1.40
2022-08-31T06:05:18.470Z,1.20
2022-08-31T06:06:18.384Z,1.50
2022-08-31T06:07:18.371Z,1.30
2022-08-31T06:08:18.379Z,1.30
2022-08-31T06:09:19.448Z,1.50
2022-08-31T06:10:18.405Z,1.50
2022-08-31T06:11:18.334Z,1.60
2022-08-31T06:12:18.317Z,1.60
2022-08-31T06:13:18.470Z,1.50
2022-08-31T06:14:18.293Z,1.50
2022-08-31T06:15:18.306Z,1.50
2022-08-31T06:16:18.316Z,1.40
2022-08-31T06:17:18.248Z,1.40
2022-08-31T06:18:18.248Z,1.20
2022-08-31T06:19:18.231Z,1.60
2022-08-31T06:20:18.338Z,1.30
2022-08-31T06:21:18.221Z,1.40
2022-08-31T06:22:18.202Z,1.30
2022-08-31T06:23:18.418Z,1.60
2022-08-31T06:24:18.181Z,1.50
2022-08-31T06:25:18.192Z,1.30
2022-08-31T06:26:18.270Z,1.40
2022-08-31T06:27:18.138Z,1.50
2022-08-31T06:28:18.151Z,1.50
2022-08-31T06:29:18.130Z,1.50
2022-08-31T06:30:18.158Z,1.50
2022-08-31T06:31:18.119Z,1.30
2022-08-31T06:32:18.127Z,1.40
2022-08-31T06:33:18.310Z,1.50
2022-08-31T06:34:18.068Z,1.70
2022-08-31T06:35:18.063Z,1.60
2022-08-31T06:36:18.073Z,1.50
2022-08-31T06:37:18.462Z,1.40
2022-08-31T06:38:18.022Z,1.50
2022-08-31T06:39:18.034Z,1.50
2022-08-31T06:40:18.089Z,1.70
2022-08-31T06:41:18.014Z,1.80
2022-08-31T06:42:17.973Z,1.80
2022-08-31T06:43:18.148Z,1.60
2022-08-31T06:44:17.966Z,1.50
2022-08-31T06:45:17.950Z,1.60
2022-08-31T06:46:17.995Z,1.50
2022-08-31T06:47:21.978Z,1.60
2022-08-31T06:48:18.941Z,1.60
2022-08-31T06:49:17.906Z,1.50
2022-08-31T06:50:17.920Z,1.50
2022-08-31T06:51:17.888Z,16.70
2022-08-31T06:52:17.867Z,25.00
2022-08-31T06:53:17.980Z,10.00
2022-08-31T06:54:33.174Z,9.20
2022-08-31T06:55:18.832Z,3.20
2022-08-31T06:56:20.946Z,3.90
2022-08-31T06:57:17.813Z,3.60
2022-08-31T06:58:17.845Z,3.60
2022-08-31T06:59:17.847Z,2.60
2022-08-31T07:00:17.800Z,2.20
2022-08-31T07:01:18.351Z,1.90
2022-08-31T07:02:18.867Z,2.60
2022-08-31T07:03:17.877Z,2.50
2022-08-31T07:04:17.766Z,1.80
2022-08-31T07:05:20.177Z,2.40
2022-08-31T07:06:18.712Z,1.70
2022-08-31T07:07:17.732Z,2.00
2022-08-31T07:08:17.739Z,1.70
2022-08-31T07:09:17.678Z,1.70
2022-08-31T07:10:17.686Z,2.00
2022-08-31T07:11:17.654Z,2.00
2022-08-31T07:12:17.638Z,2.00
2022-08-31T07:13:17.775Z,1.90
2022-08-31T07:14:17.627Z,2.20
2022-08-31T07:15:17.632Z,1.80
2022-08-31T07:16:17.651Z,1.80
2022-08-31T07:17:17.598Z,1.50
2022-08-31T07:18:17.581Z,1.60
2022-08-31T07:19:17.565Z,1.70
2022-08-31T07:20:17.578Z,1.40
2022-08-31T07:21:17.540Z,1.60
2022-08-31T07:22:17.519Z,2.10
2022-08-31T07:23:17.679Z,1.60
2022-08-31T07:24:17.529Z,1.70
2022-08-31T07:25:17.498Z,1.90
2022-08-31T07:26:17.509Z,1.60
2022-08-31T07:27:17.509Z,1.70
2022-08-31T07:28:17.451Z,1.50
2022-08-31T07:29:17.444Z,1.70
2022-08-31T07:30:17.435Z,2.10
2022-08-31T07:31:17.577Z,1.70
2022-08-31T07:32:17.530Z,1.70
2022-08-31T07:33:17.605Z,1.90
2022-08-31T07:34:17.392Z,1.70
2022-08-31T07:35:17.387Z,2.00
2022-08-31T07:36:17.372Z,1.70
2022-08-31T07:37:17.379Z,1.90
2022-08-31T07:38:17.344Z,1.80
2022-08-31T07:39:17.346Z,1.90
2022-08-31T07:40:17.410Z,2.10
2022-08-31T07:41:17.311Z,2.20
2022-08-31T07:42:17.295Z,2.00
2022-08-31T07:43:17.329Z,1.70
2022-08-31T07:44:17.276Z,1.70
2022-08-31T07:45:17.264Z,1.90
2022-08-31T07:46:17.333Z,1.80
2022-08-31T07:47:17.245Z,1.50
2022-08-31T07:48:17.265Z,1.80
2022-08-31T07:49:17.221Z,2.00
2022-08-31T07:50:17.214Z,1.70
2022-08-31T07:51:17.197Z,1.60
2022-08-31T07:52:17.195Z,1.90
2022-08-31T07:53:17.174Z,1.90
2022-08-31T07:54:17.179Z,1.60
2022-08-31T07:55:17.177Z,1.90
2022-08-31T07:56:17.137Z,1.80
2022-08-31T07:57:17.133Z,1.60
2022-08-31T07:58:17.147Z,1.80
2022-08-31T07:59:17.098Z,1.80
2022-08-31T08:00:17.131Z,1.70
2022-08-31T08:01:17.125Z,2.00
2022-08-31T08:02:17.680Z,2.00
2022-08-31T08:03:17.246Z,1.90
2022-08-31T08:04:17.052Z,1.60
2022-08-31T08:05:17.041Z,1.90
2022-08-31T08:06:17.065Z,1.90
2022-08-31T08:07:17.010Z,1.70
2022-08-31T08:08:17.000Z,2.10
2022-08-31T08:09:24.415Z,2.00
2022-08-31T08:10:18.012Z,1.90
2022-08-31T08:11:17.004Z,1.70
2022-08-31T08:12:16.966Z,1.50
2022-08-31T08:13:16.991Z,1.90
2022-08-31T08:14:16.945Z,1.80
2022-08-31T08:15:16.925Z,2.10
2022-08-31T08:16:16.990Z,1.50
2022-08-31T08:17:16.945Z,1.80
2022-08-31T08:18:16.917Z,1.90
2022-08-31T08:19:16.881Z,1.70
2022-08-31T08:20:16.885Z,1.80
2022-08-31T08:21:17.866Z,1.70
2022-08-31T08:22:26.327Z,1.60
2022-08-31T08:23:18.291Z,1.40
2022-08-31T08:24:17.834Z,2.00
2022-08-31T08:25:16.817Z,1.70
2022-08-31T08:26:21.674Z,1.80
2022-08-31T08:27:16.809Z,1.90
2022-08-31T08:28:35.976Z,1.70
2022-08-31T08:29:17.777Z,1.50
2022-08-31T08:30:16.780Z,1.80
2022-08-31T08:31:16.855Z,2.00
2022-08-31T08:32:17.585Z,1.70
2022-08-31T08:33:16.733Z,1.40
2022-08-31T08:34:16.720Z,1.80
2022-08-31T08:35:16.735Z,1.80
2022-08-31T08:36:16.692Z,2.10
2022-08-31T08:37:16.684Z,2.10
2022-08-31T08:38:16.713Z,1.80
2022-08-31T08:39:16.702Z,1.70
2022-08-31T08:40:16.718Z,2.10
2022-08-31T08:41:16.643Z,1.90
2022-08-31T08:42:16.626Z,2.00
2022-08-31T08:43:16.644Z,1.70
2022-08-31T08:44:18.158Z,2.20
2022-08-31T08:45:16.596Z,2.20
2022-08-31T08:46:34.019Z,1.80
2022-08-31T08:47:17.573Z,2.10
2022-08-31T08:48:16.593Z,1.90
2022-08-31T08:49:16.574Z,1.80
2022-08-31T08:50:16.563Z,1.80
2022-08-31T08:51:16.543Z,1.70
2022-08-31T08:52:16.509Z,1.80
2022-08-31T08:53:16.501Z,1.90
2022-08-31T08:54:16.487Z,2.10
2022-08-31T08:55:16.518Z,1.50
2022-08-31T08:56:32.409Z,1.80
2022-08-31T08:57:17.458Z,1.50
2022-08-31T08:58:16.480Z,1.70
2022-08-31T08:59:19.711Z,1.70
2022-08-31T09:00:16.441Z,2.00
2022-08-31T09:01:16.479Z,1.80
2022-08-31T09:02:16.438Z,1.80
2022-08-31T09:03:16.381Z,1.70
2022-08-31T09:04:16.393Z,1.80
2022-08-31T09:05:16.364Z,1.60
2022-08-31T09:06:16.395Z,1.80
2022-08-31T09:07:16.340Z,2.20
2022-08-31T09:08:16.384Z,2.10
2022-08-31T09:09:16.353Z,2.00
2022-08-31T09:10:16.313Z,1.80
2022-08-31T09:11:16.344Z,1.80
2022-08-31T09:12:16.284Z,1.90
2022-08-31T09:13:16.275Z,1.80
2022-08-31T09:14:16.272Z,1.80
2022-08-31T09:15:16.263Z,1.80
2022-08-31T09:16:16.381Z,1.90
2022-08-31T09:17:16.281Z,1.80
2022-08-31T09:18:16.440Z,2.10
2022-08-31T09:19:16.218Z,1.70
2022-08-31T09:20:16.224Z,1.50
2022-08-31T09:21:16.226Z,1.80
2022-08-31T09:22:16.189Z,1.70
2022-08-31T09:23:16.171Z,2.00
2022-08-31T09:24:16.243Z,1.80
2022-08-31T09:25:16.154Z,2.00
2022-08-31T09:26:16.181Z,1.80
2022-08-31T09:27:16.134Z,1.80
2022-08-31T09:28:16.131Z,1.90
2022-08-31T09:29:16.098Z,1.80
2022-08-31T09:30:16.130Z,2.10
2022-08-31T09:31:16.169Z,2.10
2022-08-31T09:32:16.081Z,2.20
2022-08-31T09:33:16.070Z,1.90
2022-08-31T09:34:16.059Z,2.00
2022-08-31T09:35:16.064Z,2.20
2022-08-31T09:36:16.049Z,2.20
2022-08-31T09:37:16.003Z,2.00
2022-08-31T09:38:16.006Z,1.60
2022-08-31T09:39:16.022Z,1.60
2022-08-31T09:40:16.114Z,1.60
2022-08-31T09:41:15.979Z,1.80
2022-08-31T09:42:15.978Z,1.90
2022-08-31T09:43:17.975Z,1.90
2022-08-31T09:44:15.967Z,1.70
2022-08-31T09:45:15.925Z,1.90
2022-08-31T09:46:15.991Z,2.00
2022-08-31T09:47:15.910Z,1.80
2022-08-31T09:48:15.901Z,2.20
2022-08-31T09:49:15.900Z,1.80
2022-08-31T09:50:15.889Z,2.40
2022-08-31T09:51:15.859Z,2.40
2022-08-31T09:52:15.852Z,2.00
2022-08-31T09:53:15.841Z,1.90
2022-08-31T09:54:15.825Z,2.00
2022-08-31T09:55:15.820Z,1.90
2022-08-31T09:56:15.860Z,2.00
2022-08-31T09:57:15.810Z,1.60
2022-08-31T09:58:15.779Z,1.60
2022-08-31T09:59:15.762Z,1.70
2022-08-31T10:00:15.797Z,2.20
2022-08-31T10:01:15.824Z,1.70
2022-08-31T10:02:15.772Z,1.90
2022-08-31T10:03:15.733Z,1.70
2022-08-31T10:04:15.732Z,1.90
2022-08-31T10:05:15.746Z,1.80
2022-08-31T10:06:15.682Z,2.00
2022-08-31T10:07:15.695Z,1.60
2022-08-31T10:08:19.415Z,1.80
2022-08-31T10:09:15.664Z,2.40
2022-08-31T10:10:16.013Z,2.10
2022-08-31T10:11:16.658Z,2.00
2022-08-31T10:12:15.619Z,1.70
2022-08-31T10:13:15.638Z,1.80
2022-08-31T10:14:15.613Z,2.00
2022-08-31T10:15:15.876Z,1.90
2022-08-31T10:16:15.624Z,2.20
2022-08-31T10:17:15.562Z,1.90
2022-08-31T10:18:15.551Z,1.80
2022-08-31T10:19:15.574Z,1.80
2022-08-31T10:20:15.535Z,1.80
2022-08-31T10:21:15.524Z,2.60
2022-08-31T10:22:15.545Z,2.00
2022-08-31T10:23:15.689Z,2.20
2022-08-31T10:24:15.522Z,1.80
2022-08-31T10:25:15.470Z,2.10
2022-08-31T10:26:15.486Z,2.20
2022-08-31T10:27:15.461Z,2.10
2022-08-31T10:28:15.444Z,2.10
2022-08-31T10:29:23.460Z,2.40
2022-08-31T10:30:16.475Z,2.80
2022-08-31T10:31:15.448Z,2.70
2022-08-31T10:32:15.396Z,3.50
2022-08-31T10:33:15.473Z,4.20
2022-08-31T10:34:15.415Z,4.20
2022-08-31T10:35:15.376Z,3.60
2022-08-31T10:36:15.406Z,3.80
2022-08-31T10:37:15.346Z,3.70
2022-08-31T10:38:19.812Z,3.80
2022-08-31T10:39:15.357Z,2.90
2022-08-31T10:40:15.374Z,3.00
2022-08-31T10:41:15.300Z,3.10
2022-08-31T10:42:15.300Z,3.20
2022-08-31T10:43:15.366Z,2.70
2022-08-31T10:44:15.282Z,2.90
2022-08-31T10:45:18.370Z,2.70
2022-08-31T10:46:15.321Z,2.80
2022-08-31T10:47:22.763Z,2.40
2022-08-31T10:48:16.230Z,2.50
2022-08-31T10:49:15.209Z,2.50
2022-08-31T10:50:15.201Z,2.30
2022-08-31T10:51:15.186Z,2.50
2022-08-31T10:52:15.181Z,2.80
2022-08-31T10:53:15.238Z,2.10
2022-08-31T10:54:15.174Z,2.30
2022-08-31T10:55:15.183Z,2.30
2022-08-31T10:56:15.141Z,2.40
2022-08-31T10:57:21.597Z,2.20
2022-08-31T10:58:16.132Z,2.70
2022-08-31T10:59:15.094Z,2.60
2022-08-31T11:00:15.093Z,2.10
2022-08-31T11:01:15.163Z,2.90
2022-08-31T11:02:15.079Z,2.80
2022-08-31T11:03:15.106Z,2.50
2022-08-31T11:04:15.230Z,2.70
2022-08-31T11:05:15.039Z,2.50
2022-08-31T11:06:15.048Z,2.30
2022-08-31T11:07:15.020Z,2.50
2022-08-31T11:08:15.029Z,2.80
2022-08-31T11:09:15.046Z,2.10
2022-08-31T11:10:14.979Z,2.30
2022-08-31T11:11:14.971Z,2.10
2022-08-31T11:12:14.982Z,2.40
2022-08-31T11:13:15.009Z,2.70
2022-08-31T11:14:14.969Z,2.30
2022-08-31T11:15:14.949Z,2.40
2022-08-31T11:16:14.979Z,2.90
2022-08-31T11:17:14.904Z,2.40
2022-08-31T11:18:14.918Z,2.40
2022-08-31T11:19:14.884Z,2.30
2022-08-31T11:20:14.880Z,2.20
2022-08-31T11:21:15.708Z,2.40
2022-08-31T11:22:14.843Z,2.50
2022-08-31T11:23:14.890Z,2.20
2022-08-31T11:24:14.813Z,2.40
2022-08-31T11:25:14.803Z,2.10
2022-08-31T11:26:14.794Z,2.10
2022-08-31T11:27:14.840Z,2.20
2022-08-31T11:28:14.776Z,2.30
2022-08-31T11:29:14.769Z,2.20
2022-08-31T11:30:14.767Z,2.80
2022-08-31T11:31:14.805Z,2.70
2022-08-31T11:32:14.728Z,2.30
2022-08-31T11:33:14.795Z,2.50
2022-08-31T11:34:16.375Z,2.30
2022-08-31T11:35:14.686Z,2.70
2022-08-31T11:36:14.686Z,2.60
2022-08-31T11:37:14.683Z,2.20
2022-08-31T11:38:14.687Z,2.00
2022-08-31T11:39:14.642Z,2.40
2022-08-31T11:40:14.673Z,2.50
2022-08-31T11:41:14.661Z,2.20
2022-08-31T11:42:14.639Z,2.00
2022-08-31T11:43:14.672Z,2.70
2022-08-31T11:44:14.604Z,2.10
2022-08-31T11:45:14.595Z,1.80
2022-08-31T11:46:17.394Z,1.90
2022-08-31T11:47:14.782Z,2.10
2022-08-31T11:48:14.551Z,2.20
2022-08-31T11:49:14.559Z,2.30
2022-08-31T11:50:14.534Z,2.20
2022-08-31T11:51:14.532Z,2.30
2022-08-31T11:52:14.498Z,2.40
2022-08-31T11:53:14.548Z,1.90
2022-08-31T11:54:14.489Z,2.30
2022-08-31T11:55:14.490Z,2.50
2022-08-31T11:56:14.475Z,1.90
2022-08-31T11:57:14.455Z,2.10
2022-08-31T11:58:18.498Z,1.90
2022-08-31T11:59:15.477Z,2.10
2022-08-31T12:00:14.434Z,1.70
2022-08-31T12:01:14.407Z,2.00
2022-08-31T12:02:14.416Z,2.20
2022-08-31T12:03:14.423Z,2.20
2022-08-31T12:04:14.411Z,2.00
2022-08-31T12:05:15.397Z,1.80
2022-08-31T12:06:14.354Z,2.10
2022-08-31T12:07:14.351Z,2.20
2022-08-31T12:08:14.338Z,2.10
2022-08-31T12:09:14.364Z,1.90
2022-08-31T12:10:14.331Z,1.80
2022-08-31T12:11:14.303Z,2.10
2022-08-31T12:12:14.284Z,1.80
2022-08-31T12:13:14.315Z,2.10
2022-08-31T12:14:14.267Z,1.80
2022-08-31T12:15:14.274Z,2.00
2022-08-31T12:16:14.260Z,1.90
2022-08-31T12:17:14.239Z,2.40
2022-08-31T12:18:14.274Z,2.30
2022-08-31T12:19:14.232Z,2.20
2022-08-31T12:20:14.210Z,1.90
2022-08-31T12:21:14.185Z,2.00
2022-08-31T12:22:14.166Z,1.90
2022-08-31T12:23:24.396Z,2.60
2022-08-31T12:24:17.685Z,2.30
2022-08-31T12:25:14.143Z,2.00
2022-08-31T12:26:14.129Z,2.10
2022-08-31T12:27:14.157Z,2.20
2022-08-31T12:28:14.104Z,2.00
2022-08-31T12:29:14.111Z,1.90
2022-08-31T12:30:14.089Z,2.60
2022-08-31T12:31:14.129Z,2.00
2022-08-31T12:32:14.075Z,2.60
2022-08-31T12:33:14.121Z,1.90
2022-08-31T12:34:14.044Z,2.10
2022-08-31T12:35:14.037Z,2.00
2022-08-31T12:36:14.041Z,1.90
2022-08-31T12:37:14.081Z,1.70
2022-08-31T12:38:13.999Z,1.70
2022-08-31T12:39:13.993Z,2.00
2022-08-31T12:40:14.026Z,2.00
2022-08-31T12:41:13.962Z,1.90
2022-08-31T12:42:13.964Z,2.10
2022-08-31T12:43:13.974Z,2.50
2022-08-31T12:44:14.508Z,2.10
2022-08-31T12:45:13.936Z,2.10
2022-08-31T12:46:13.960Z,1.90
2022-08-31T12:47:13.896Z,2.00
2022-08-31T12:48:13.902Z,2.00
2022-08-31T12:49:13.916Z,3.00
2022-08-31T12:50:17.812Z,2.10
2022-08-31T12:51:13.871Z,2.70
2022-08-31T12:52:13.882Z,2.00
2022-08-31T12:53:13.848Z,1.90
2022-08-31T12:54:13.839Z,2.20
2022-08-31T12:55:13.827Z,1.80
2022-08-31T12:56:13.798Z,2.30
2022-08-31T12:57:13.789Z,2.20
2022-08-31T12:58:13.782Z,2.00
2022-08-31T12:59:13.798Z,1.90
2022-08-31T13:00:13.785Z,1.90
2022-08-31T13:01:13.993Z,2.30
2022-08-31T13:02:13.833Z,2.00
2022-08-31T13:03:13.727Z,2.00
2022-08-31T13:04:13.707Z,2.20
2022-08-31T13:05:13.712Z,1.90
2022-08-31T13:06:13.738Z,2.30
2022-08-31T13:07:13.721Z,2.30
2022-08-31T13:08:13.677Z,2.30
2022-08-31T13:09:13.659Z,2.00
2022-08-31T13:10:13.658Z,2.20
2022-08-31T13:11:13.669Z,2.00
2022-08-31T13:12:13.646Z,2.30
2022-08-31T13:13:13.625Z,2.30
2022-08-31T13:14:13.616Z,2.10
2022-08-31T13:15:13.597Z,2.00
2022-08-31T13:16:13.620Z,2.10
2022-08-31T13:17:13.643Z,2.40
2022-08-31T13:18:13.572Z,2.10